Time,TemperatureF,DewpointF,PressureIn,WindDirection,WindDirectionDegrees,WindSpeedMPH,WindSpeedGustMPH,Humidity,HourlyPrecipIn,Conditions,Clouds,dailyrainin,SolarRadiationWatts/m^2,SoftwareType,DateUTC
2013-08-08 00:01:00,70.0,37.0,-100.00,West,265,4.0,8.0,30,0.00,,,0.00,0.000000,,2013-08-08 07:01:00,
2013-08-08 00:43:00,64.0,34.0,-100.00,ESE,113,3.0,8.0,32,0.00,,,0.00,0.000000,,2013-08-08 07:43:00,
2013-08-08 00:53:00,64.0,34.0,-100.00,ESE,113,3.0,8.0,32,0.00,,,0.00,0.000000,,2013-08-08 07:53:00,
2013-08-08 01:01:00,64.0,34.0,-100.00,ESE,113,3.0,8.0,32,0.00,,,0.00,0.000000,,2013-08-08 08:01:00,
2013-08-08 01:32:00,61.0,34.0,-100.00,SE,133,4.0,7.0,36,0.00,,,0.00,0.000000,,2013-08-08 08:32:00,
2013-08-08 01:43:00,61.0,34.0,-100.00,SE,133,4.0,7.0,36,0.00,,,0.00,0.000000,,2013-08-08 08:43:00,
2013-08-08 01:53:00,61.0,34.0,-100.00,SE,133,4.0,7.0,36,0.00,,,0.00,0.000000,,2013-08-08 08:53:00,
2013-08-08 02:01:00,61.0,34.0,-100.00,SE,133,4.0,7.0,36,0.00,,,0.00,0.000000,,2013-08-08 09:01:00,
2013-08-08 02:32:00,59.0,34.0,-100.00,SE,141,6.0,7.0,39,0.00,,,0.00,0.000000,,2013-08-08 09:32:00,
2013-08-08 02:43:00,59.0,34.0,-100.00,SE,141,6.0,7.0,39,0.00,,,0.00,0.000000,,2013-08-08 09:43:00,
2013-08-08 02:53:00,59.0,34.0,-100.00,SE,141,6.0,7.0,39,0.00,,,0.00,0.000000,,2013-08-08 09:53:00,
2013-08-08 03:32:00,59.0,37.0,-100.00,SE,137,5.0,7.0,43,0.00,,,0.00,0.000000,,2013-08-08 10:32:00,
2013-08-08 03:43:00,59.0,37.0,-100.00,SE,137,5.0,7.0,43,0.00,,,0.00,0.000000,,2013-08-08 10:43:00,
2013-08-08 03:52:00,59.0,37.0,-100.00,SE,137,5.0,7.0,43,0.00,,,0.00,0.000000,,2013-08-08 10:52:00,
2013-08-08 04:01:00,59.0,37.0,-100.00,SE,137,5.0,7.0,43,0.00,,,0.00,0.000000,,2013-08-08 11:01:00,
2013-08-08 04:32:00,57.0,38.0,-100.00,SE,142,7.0,8.0,48,0.00,,,0.00,0.000000,,2013-08-08 11:32:00,
2013-08-08 04:43:00,57.0,38.0,-100.00,SE,142,7.0,8.0,48,0.00,,,0.00,0.000000,,2013-08-08 11:43:00,
2013-08-08 04:52:00,57.0,38.0,-100.00,SE,142,7.0,8.0,48,0.00,,,0.00,0.000000,,2013-08-08 11:52:00,
2013-08-08 05:01:00,57.0,38.0,-100.00,SE,142,7.0,8.0,48,0.00,,,0.00,0.000000,,2013-08-08 12:01:00,
2013-08-08 05:32:00,56.0,38.0,-100.00,SE,126,6.0,10.0,51,0.00,,,0.00,0.000000,,2013-08-08 12:32:00,
2013-08-08 05:43:00,56.0,38.0,-100.00,SE,126,6.0,10.0,51,0.00,,,0.00,0.000000,,2013-08-08 12:43:00,
2013-08-08 05:53:00,56.0,38.0,-100.00,SE,126,6.0,10.0,51,0.00,,,0.00,0.000000,,2013-08-08 12:53:00,
2013-08-08 06:32:00,55.0,38.0,-100.00,SE,128,6.0,9.0,52,0.00,,,-99.99,4.000000,,2013-08-08 13:32:00,
2013-08-08 06:43:00,55.0,38.0,-100.00,SE,128,6.0,9.0,52,0.00,,,-99.99,4.000000,,2013-08-08 13:43:00,
2013-08-08 06:52:00,55.0,38.0,-100.00,SE,128,6.0,9.0,52,0.00,,,-99.99,4.000000,,2013-08-08 13:52:00,
2013-08-08 07:02:00,55.0,38.0,-100.00,SE,128,6.0,9.0,52,0.00,,,-99.99,4.000000,,2013-08-08 14:02:00,
2013-08-08 07:32:00,67.0,44.0,-100.00,ESE,113,5.0,9.0,43,-99.99,,,0.00,74.000000,,2013-08-08 14:32:00,
2013-08-08 07:43:00,67.0,44.0,-100.00,ESE,113,5.0,9.0,43,-99.99,,,0.00,74.000000,,2013-08-08 14:43:00,
2013-08-08 07:53:00,67.0,44.0,-100.00,ESE,113,5.0,9.0,43,-99.99,,,0.00,74.000000,,2013-08-08 14:53:00,
2013-08-08 08:02:00,67.0,44.0,-100.00,ESE,113,5.0,9.0,43,-99.99,,,0.00,74.000000,,2013-08-08 15:02:00,
2013-08-08 08:43:00,72.0,46.0,-100.00,ENE,60,6.0,10.0,39,0.00,,,0.00,197.000000,,2013-08-08 15:43:00,
2013-08-08 08:53:00,72.0,46.0,-100.00,ENE,60,6.0,10.0,39,0.00,,,0.00,197.000000,,2013-08-08 15:53:00,
2013-08-08 09:01:00,72.0,46.0,-100.00,ENE,60,6.0,10.0,39,0.00,,,0.00,197.000000,,2013-08-08 16:01:00,
2013-08-08 09:32:00,76.0,46.0,-100.00,ENE,67,5.0,10.0,35,0.00,,,0.00,328.000000,,2013-08-08 16:32:00,
2013-08-08 09:42:00,76.0,46.0,-100.00,ENE,67,5.0,10.0,35,0.00,,,0.00,328.000000,,2013-08-08 16:42:00,
2013-08-08 09:52:00,76.0,46.0,-100.00,ENE,67,5.0,10.0,35,0.00,,,0.00,328.000000,,2013-08-08 16:52:00,
2013-08-08 10:01:00,76.0,46.0,-100.00,ENE,67,5.0,10.0,35,0.00,,,0.00,328.000000,,2013-08-08 17:01:00,
2013-08-08 10:32:00,77.0,46.0,-100.00,NNW,342,7.0,12.0,33,0.00,,,0.00,284.000000,,2013-08-08 17:32:00,
2013-08-08 10:43:00,77.0,46.0,-100.00,NNW,342,7.0,12.0,33,0.00,,,0.00,284.000000,,2013-08-08 17:43:00,
2013-08-08 10:52:00,77.0,46.0,-100.00,NNW,342,7.0,12.0,33,0.00,,,0.00,284.000000,,2013-08-08 17:52:00,
2013-08-08 11:01:00,77.0,46.0,-100.00,NNW,342,7.0,12.0,33,0.00,,,0.00,284.000000,,2013-08-08 18:01:00,
2013-08-08 11:32:00,83.0,46.0,-100.00,NE,39,6.0,12.0,27,0.00,,,0.00,514.000000,,2013-08-08 18:32:00,
2013-08-08 11:43:00,83.0,46.0,-100.00,NE,39,6.0,12.0,27,0.00,,,0.00,514.000000,,2013-08-08 18:43:00,
2013-08-08 11:52:00,83.0,46.0,-100.00,NE,39,6.0,12.0,27,0.00,,,0.00,514.000000,,2013-08-08 18:52:00,
2013-08-08 12:01:00,83.0,46.0,-100.00,NE,39,6.0,12.0,27,0.00,,,0.00,514.000000,,2013-08-08 19:01:00,
2013-08-08 12:32:00,84.0,43.0,-100.00,NNE,24,4.0,14.0,24,0.00,,,0.00,631.000000,,2013-08-08 19:32:00,
2013-08-08 12:43:00,84.0,43.0,-100.00,NNE,24,4.0,14.0,24,0.00,,,0.00,631.000000,,2013-08-08 19:43:00,
2013-08-08 12:56:00,84.0,43.0,-100.00,NNE,24,4.0,14.0,24,0.00,,,0.00,631.000000,,2013-08-08 19:56:00,
2013-08-08 13:02:00,84.0,43.0,-100.00,NNE,24,4.0,14.0,24,0.00,,,0.00,631.000000,,2013-08-08 20:02:00,
2013-08-08 13:32:00,88.0,42.0,-100.00,WSW,237,5.0,12.0,20,0.00,,,-99.99,762.000000,,2013-08-08 20:32:00,
2013-08-08 13:42:00,88.0,42.0,-100.00,WSW,237,5.0,12.0,20,0.00,,,-99.99,762.000000,,2013-08-08 20:42:00,
2013-08-08 13:52:00,88.0,42.0,-100.00,WSW,237,5.0,12.0,20,0.00,,,-99.99,762.000000,,2013-08-08 20:52:00,
2013-08-08 14:01:00,88.0,42.0,-100.00,WSW,237,5.0,12.0,20,0.00,,,-99.99,762.000000,,2013-08-08 21:01:00,
2013-08-08 14:34:00,89.0,43.0,-100.00,WSW,251,4.0,14.0,20,0.00,,,-99.99,757.000000,,2013-08-08 21:34:00,
2013-08-08 14:45:00,89.0,43.0,-100.00,WSW,251,4.0,14.0,20,0.00,,,-99.99,757.000000,,2013-08-08 21:45:00,
2013-08-08 15:02:00,89.0,43.0,-100.00,WSW,251,4.0,14.0,20,0.00,,,-99.99,757.000000,,2013-08-08 22:02:00,
2013-08-08 15:37:00,91.0,40.0,-100.00,NW,304,6.0,16.0,17,0.00,,,0.00,764.000000,,2013-08-08 22:37:00,
2013-08-08 15:49:00,91.0,40.0,-100.00,NW,304,6.0,16.0,17,0.00,,,0.00,764.000000,,2013-08-08 22:49:00,
2013-08-08 15:56:00,91.0,40.0,-100.00,NW,304,6.0,16.0,17,0.00,,,0.00,764.000000,,2013-08-08 22:56:00,
2013-08-08 16:02:00,91.0,40.0,-100.00,NW,304,6.0,16.0,17,0.00,,,0.00,764.000000,,2013-08-08 23:02:00,
2013-08-08 17:01:00,94.0,39.0,-100.00,NW,314,4.0,12.0,15,0.00,,,0.00,747.000000,,2013-08-09 00:01:00,
2013-08-08 17:55:00,91.0,39.0,-100.00,SW,214,6.0,12.0,16,0.00,,,0.00,516.000000,,2013-08-09 00:55:00,
2013-08-08 18:01:00,91.0,39.0,-100.00,SW,214,6.0,12.0,16,0.00,,,0.00,516.000000,,2013-08-09 01:01:00,
2013-08-08 18:46:00,89.0,38.0,-100.00,SSW,193,6.0,11.0,17,0.00,,,0.00,239.000000,,2013-08-09 01:46:00,
2013-08-08 18:58:00,89.0,38.0,-100.00,SSW,193,6.0,11.0,17,0.00,,,0.00,239.000000,,2013-08-09 01:58:00,
2013-08-08 20:35:00,83.0,47.0,-100.00,North,6,6.0,12.0,28,0.00,,,0.00,56.000000,,2013-08-09 03:35:00,
2013-08-08 20:47:00,83.0,47.0,-100.00,North,6,6.0,12.0,28,0.00,,,0.00,56.000000,,2013-08-09 03:47:00,
2013-08-08 20:55:00,83.0,47.0,-100.00,North,6,6.0,12.0,28,0.00,,,0.00,56.000000,,2013-08-09 03:55:00,
2013-08-08 21:01:00,83.0,47.0,-100.00,North,6,6.0,12.0,28,0.00,,,0.00,56.000000,,2013-08-09 04:01:00,
2013-08-08 21:33:00,77.0,50.0,-100.00,East,89,5.0,8.0,39,0.00,,,0.00,5.000000,,2013-08-09 04:33:00,
2013-08-08 21:43:00,77.0,50.0,-100.00,East,89,5.0,8.0,39,0.00,,,0.00,5.000000,,2013-08-09 04:43:00,
2013-08-08 21:53:00,77.0,50.0,-100.00,East,89,5.0,8.0,39,0.00,,,0.00,5.000000,,2013-08-09 04:53:00,
2013-08-08 22:01:00,77.0,50.0,-100.00,East,89,5.0,8.0,39,0.00,,,0.00,5.000000,,2013-08-09 05:01:00,
2013-08-08 22:33:00,76.0,51.0,-100.00,ENE,63,4.0,9.0,42,0.00,,,0.00,0.000000,,2013-08-09 05:33:00,
2013-08-08 22:43:00,76.0,51.0,-100.00,ENE,63,4.0,9.0,42,0.00,,,0.00,0.000000,,2013-08-09 05:43:00,
2013-08-08 22:52:00,76.0,51.0,-100.00,ENE,63,4.0,9.0,42,0.00,,,0.00,0.000000,,2013-08-09 05:52:00,
2013-08-08 23:01:00,76.0,51.0,-100.00,ENE,63,4.0,9.0,42,0.00,,,0.00,0.000000,,2013-08-09 06:01:00,
2013-08-08 23:32:00,71.0,51.0,-100.00,NE,50,6.0,8.0,50,0.00,,,0.00,0.000000,,2013-08-09 06:32:00,
2013-08-08 23:43:00,71.0,51.0,-100.00,NE,50,6.0,8.0,50,0.00,,,0.00,0.000000,,2013-08-09 06:43:00,
2013-08-08 23:52:00,71.0,51.0,-100.00,NE,50,6.0,8.0,50,0.00,,,0.00,0.000000,,2013-08-09 06:52:00,